createdAt,value
2019-05-11T00:04:55.671Z,57.28
2019-05-11T00:09:58.647Z,57.33
2019-05-11T00:15:00.904Z,57.39
2019-05-11T00:20:03.258Z,57.29
2019-05-11T00:25:05.596Z,57.37
2019-05-11T00:30:08.276Z,57.31
2019-05-11T00:35:10.651Z,57.35
2019-05-11T00:40:14.818Z,57.58
2019-05-11T00:45:16.892Z,57.64
2019-05-11T00:50:19.145Z,57.85
2019-05-11T00:55:21.225Z,57.84
2019-05-11T01:00:23.270Z,57.94
2019-05-11T01:05:25.342Z,57.99
2019-05-11T01:10:41.166Z,57.98
2019-05-11T01:15:31.404Z,57.96
2019-05-11T01:20:33.462Z,57.87
2019-05-11T01:25:35.485Z,57.88
2019-05-11T01:30:38.881Z,57.78
2019-05-11T01:35:41.091Z,57.79
2019-05-11T01:40:57.718Z,58.08
2019-05-11T01:45:47.479Z,58.21
2019-05-11T01:50:49.546Z,58.31
2019-05-11T01:55:51.646Z,58.20
2019-05-11T02:00:53.681Z,58.13
2019-05-11T02:05:55.808Z,57.94
2019-05-11T02:11:13.761Z,57.88
2019-05-11T02:16:01.814Z,57.85
2019-05-11T02:21:03.853Z,57.57
2019-05-11T02:26:05.984Z,57.62
2019-05-11T02:31:08.042Z,57.46
2019-05-11T02:36:10.116Z,57.57
2019-05-11T02:41:12.142Z,57.92
2019-05-11T02:46:14.478Z,58.05
2019-05-11T02:51:16.847Z,58.29
2019-05-11T02:56:21.052Z,58.56
2019-05-11T03:01:23.872Z,58.83
2019-05-11T03:06:25.971Z,59.00
2019-05-11T03:11:28.040Z,58.95
2019-05-11T03:16:30.122Z,59.12
2019-05-11T03:21:32.271Z,59.20
2019-05-11T03:26:34.317Z,59.06
2019-05-11T03:31:36.387Z,59.01
2019-05-11T03:36:38.484Z,59.25
2019-05-11T03:41:41.013Z,59.34
2019-05-11T03:46:43.250Z,59.37
2019-05-11T03:51:45.359Z,59.22
2019-05-11T03:56:47.447Z,59.22
2019-05-11T04:01:49.514Z,59.18
2019-05-11T04:06:51.560Z,59.31
2019-05-11T04:11:53.608Z,59.15
2019-05-11T04:16:55.650Z,59.33
2019-05-11T04:21:57.716Z,59.64
2019-05-11T04:26:59.809Z,59.39
2019-05-11T04:32:04.015Z,59.46
2019-05-11T04:37:06.095Z,59.58
2019-05-11T04:42:08.155Z,60.12
2019-05-11T04:47:10.224Z,60.12
2019-05-11T04:52:12.329Z,59.62
2019-05-11T04:57:14.399Z,59.51
2019-05-11T05:02:16.493Z,59.29
2019-05-11T05:07:18.553Z,59.43
2019-05-11T05:12:20.646Z,59.38
2019-05-11T05:17:22.699Z,59.56
2019-05-11T05:22:27.958Z,59.46
2019-05-11T05:27:28.846Z,59.77
2019-05-11T05:32:30.878Z,59.46
2019-05-11T05:37:32.967Z,59.57
2019-05-11T05:42:35.098Z,59.47
2019-05-11T05:47:37.150Z,59.75
2019-05-11T05:52:39.224Z,59.46
2019-05-11T05:57:41.323Z,59.36
2019-05-11T06:02:43.427Z,59.42
2019-05-11T06:07:45.452Z,59.23
2019-05-11T06:12:47.505Z,58.97
2019-05-11T06:17:49.561Z,58.91
2019-05-11T06:22:51.619Z,58.84
2019-05-11T06:27:53.693Z,58.68
2019-05-11T06:32:55.746Z,58.47
2019-05-11T06:37:57.809Z,58.41
2019-05-11T06:42:59.855Z,58.22
2019-05-11T06:48:01.919Z,58.07
2019-05-11T06:53:04.071Z,58.44
2019-05-11T06:58:07.955Z,58.54
2019-05-11T07:03:10.038Z,58.33
2019-05-11T07:08:12.234Z,58.35
2019-05-11T07:13:14.287Z,58.18
2019-05-11T07:18:16.502Z,58.02
2019-05-11T07:23:18.583Z,58.30
2019-05-11T07:28:20.663Z,58.81
2019-05-11T07:33:22.726Z,58.67
2019-05-11T07:38:24.829Z,58.74
2019-05-11T07:43:28.720Z,58.66
2019-05-11T07:48:30.905Z,58.82
2019-05-11T07:53:32.976Z,59.43
2019-05-11T07:58:35.008Z,59.79
2019-05-11T08:03:38.869Z,60.20
2019-05-11T08:08:41.073Z,60.60
2019-05-11T08:13:43.186Z,61.02
2019-05-11T08:18:47.870Z,61.08
2019-05-11T08:23:49.242Z,61.18
2019-05-11T08:28:51.309Z,61.51
2019-05-11T08:33:53.388Z,61.46
2019-05-11T08:38:55.421Z,61.85
2019-05-11T08:43:58.691Z,61.97
2019-05-11T08:49:01.120Z,62.60
2019-05-11T08:54:03.233Z,62.90
2019-05-11T08:59:07.392Z,63.10
2019-05-11T09:04:09.337Z,63.28
2019-05-11T09:09:13.227Z,63.39
2019-05-11T09:14:15.448Z,63.88
2019-05-11T09:19:17.857Z,63.93
2019-05-11T09:24:20.086Z,64.58
2019-05-11T09:29:22.177Z,64.96
2019-05-11T09:34:24.224Z,64.97
2019-05-11T09:39:28.113Z,65.26
2019-05-11T09:44:30.259Z,65.38
2019-05-11T09:49:43.997Z,65.67
2019-05-11T09:54:38.213Z,66.26
2019-05-11T09:59:40.373Z,66.46
2019-05-11T10:04:42.442Z,66.27
2019-05-11T10:09:44.611Z,66.77
2019-05-11T10:14:48.556Z,66.67
2019-05-11T10:19:50.685Z,66.79
2019-05-11T10:24:52.741Z,67.21
2019-05-11T10:29:54.892Z,67.37
2019-05-11T10:34:58.377Z,67.51
2019-05-11T10:40:00.764Z,67.63
2019-05-11T10:45:02.883Z,67.39
2019-05-11T10:50:08.379Z,67.30
2019-05-11T10:55:10.078Z,67.13
2019-05-11T11:00:12.197Z,67.07
2019-05-11T11:05:14.344Z,67.09
2019-05-11T11:10:18.185Z,67.15
2019-05-11T11:15:20.752Z,66.88
2019-05-11T11:20:22.817Z,66.98
2019-05-11T11:25:24.879Z,66.53
2019-05-11T11:30:28.578Z,66.70
2019-05-11T11:35:30.974Z,66.26
2019-05-11T11:40:33.031Z,66.31
2019-05-11T11:45:35.240Z,66.71
2019-05-11T11:50:37.722Z,66.67
2019-05-11T11:55:39.998Z,66.53
2019-05-11T12:00:42.051Z,65.92
2019-05-11T12:05:44.182Z,65.56
2019-05-11T12:10:48.323Z,65.48
2019-05-11T12:15:50.186Z,65.86
2019-05-11T12:20:52.255Z,65.59
2019-05-11T12:25:54.304Z,65.65
2019-05-11T12:30:58.442Z,66.02
2019-05-11T12:36:00.395Z,65.78
2019-05-11T12:41:02.432Z,65.54
2019-05-11T12:46:04.443Z,65.78
2019-05-11T12:51:07.945Z,65.78
2019-05-11T12:56:10.541Z,65.65
2019-05-11T13:01:12.605Z,65.47
2019-05-11T13:06:14.688Z,65.79
2019-05-11T13:11:18.788Z,65.42
2019-05-11T13:16:20.687Z,65.50
2019-05-11T13:21:22.720Z,65.42
2019-05-11T13:26:24.785Z,65.10
2019-05-11T13:31:27.828Z,64.98
2019-05-11T13:36:30.132Z,65.33
2019-05-11T13:41:32.180Z,65.34
2019-05-11T13:46:34.220Z,65.79
2019-05-11T13:51:38.585Z,66.42
2019-05-11T13:56:40.330Z,67.01
2019-05-11T14:01:42.375Z,67.17
2019-05-11T14:06:44.472Z,67.15
2019-05-11T14:11:47.896Z,67.07
2019-05-11T14:16:50.065Z,67.42
2019-05-11T14:21:52.109Z,67.44
2019-05-11T14:26:54.137Z,67.35
2019-05-11T14:31:58.052Z,67.50
2019-05-11T14:37:00.207Z,67.21
2019-05-11T14:42:02.364Z,67.32
2019-05-11T14:47:04.450Z,67.22
2019-05-11T14:52:08.331Z,67.45
2019-05-11T14:57:10.556Z,67.61
2019-05-11T15:02:37.627Z,67.95
2019-05-11T15:07:39.276Z,68.09
2019-05-11T15:12:41.405Z,67.89
2019-05-11T15:17:43.563Z,67.65
2019-05-11T15:22:45.615Z,67.71
2019-05-11T15:27:48.840Z,67.91
2019-05-11T15:32:51.181Z,67.78
2019-05-11T15:37:53.228Z,67.90
2019-05-11T15:42:55.305Z,67.80
2019-05-11T15:47:58.938Z,67.74
2019-05-11T15:53:01.398Z,67.47
2019-05-11T15:58:06.553Z,67.73
2019-05-11T16:03:08.659Z,68.01
2019-05-11T16:08:12.619Z,68.03
2019-05-11T16:13:14.654Z,68.03
2019-05-11T16:18:18.869Z,68.20
2019-05-11T16:23:20.766Z,68.49
2019-05-11T16:28:22.959Z,68.44
2019-05-11T16:33:25.022Z,68.37
2019-05-11T16:38:29.035Z,68.60
2019-05-11T16:43:31.262Z,68.57
2019-05-11T16:48:33.342Z,69.02
2019-05-11T16:53:36.285Z,69.06
2019-05-11T16:58:41.084Z,69.18
2019-05-11T17:03:43.566Z,69.49
2019-05-11T17:08:45.633Z,69.58
2019-05-11T17:13:48.388Z,69.70
2019-05-11T17:18:50.641Z,69.93
2019-05-11T17:23:52.726Z,70.01
2019-05-11T17:28:54.830Z,70.23
2019-05-11T17:33:58.080Z,70.38
2019-05-11T17:39:00.518Z,70.21
2019-05-11T17:44:02.740Z,70.25
2019-05-11T17:49:08.096Z,70.34
2019-05-11T17:54:11.438Z,70.58
2019-05-11T17:59:13.830Z,70.44
2019-05-11T18:04:18.272Z,70.50
2019-05-11T18:09:19.931Z,70.61
2019-05-11T18:14:21.995Z,70.61
2019-05-11T18:19:24.136Z,70.53
2019-05-11T18:24:28.360Z,70.39
2019-05-11T18:29:30.153Z,70.27
2019-05-11T18:34:32.221Z,70.26
2019-05-11T18:39:34.415Z,70.29
2019-05-11T18:44:37.929Z,70.12
2019-05-11T18:49:40.363Z,70.35
2019-05-11T18:54:42.359Z,70.50
2019-05-11T18:59:44.526Z,70.37
2019-05-11T19:04:48.780Z,70.26
2019-05-11T19:09:50.800Z,70.04
2019-05-11T19:14:52.842Z,69.84
2019-05-11T19:19:54.896Z,69.51
2019-05-11T19:24:58.262Z,69.28
2019-05-11T19:30:00.530Z,69.07
2019-05-11T19:35:02.740Z,68.92
2019-05-11T19:40:05.948Z,68.74
2019-05-11T19:45:08.133Z,68.61
2019-05-11T19:50:10.169Z,68.86
2019-05-11T19:55:12.356Z,68.89
2019-05-11T20:00:14.893Z,69.12
2019-05-11T20:05:18.444Z,69.20
2019-05-11T20:10:20.913Z,69.24
2019-05-11T20:15:22.994Z,68.96
2019-05-11T20:20:25.036Z,68.90
2019-05-11T20:25:28.826Z,68.90
2019-05-11T20:30:31.091Z,68.95
2019-05-11T20:35:33.176Z,68.90
2019-05-11T20:40:37.496Z,68.89
2019-05-11T20:45:39.297Z,68.75
2019-05-11T20:50:41.332Z,68.75
2019-05-11T20:55:43.400Z,68.96
2019-05-11T21:00:45.435Z,69.08
2019-05-11T21:05:48.252Z,68.78
2019-05-11T21:10:50.474Z,68.79
2019-05-11T21:15:52.517Z,68.90
2019-05-11T21:20:57.770Z,68.71
2019-05-11T21:26:00.139Z,68.92
2019-05-11T21:31:02.196Z,68.60
2019-05-11T21:36:04.249Z,68.67
2019-05-11T21:41:08.597Z,68.55
2019-05-11T21:46:10.383Z,68.42
2019-05-11T21:51:12.444Z,68.39
2019-05-11T21:56:14.565Z,68.42
2019-05-11T22:01:18.386Z,68.23
2019-05-11T22:06:20.579Z,68.29
2019-05-11T22:11:22.687Z,68.14
2019-05-11T22:16:24.960Z,67.85
2019-05-11T22:21:28.060Z,67.98
2019-05-11T22:26:30.453Z,67.68
2019-05-11T22:31:32.801Z,67.69
2019-05-11T22:36:34.875Z,67.63
2019-05-11T22:41:39.343Z,67.66
2019-05-11T22:46:41.018Z,67.51
2019-05-11T22:51:43.217Z,67.56
2019-05-11T22:56:45.304Z,67.44
2019-05-11T23:01:48.316Z,67.58
2019-05-11T23:06:50.579Z,67.41
2019-05-11T23:11:52.642Z,67.27
2019-05-11T23:16:54.719Z,67.23
2019-05-11T23:21:58.720Z,67.08
2019-05-11T23:27:00.727Z,67.00
2019-05-11T23:32:02.830Z,66.96
2019-05-11T23:37:07.969Z,66.81
2019-05-11T23:42:10.189Z,66.62
2019-05-11T23:47:12.275Z,66.49
2019-05-11T23:52:14.525Z,66.36
2019-05-11T23:57:18.612Z,66.44
